createdAt,value
2018-06-28T00:01:31.804Z,97.60
2018-06-28T00:04:00.373Z,97.90
2018-06-28T00:06:28.904Z,98.20
2018-06-28T00:08:57.521Z,98.20
2018-06-28T00:11:26.165Z,98.40
2018-06-28T00:13:54.673Z,98.60
2018-06-28T00:16:23.389Z,98.50
2018-06-28T00:18:51.905Z,98.40
2018-06-28T00:21:20.643Z,98.40
2018-06-28T00:23:49.322Z,98.00
2018-06-28T00:26:18.079Z,97.80
2018-06-28T00:28:46.760Z,97.30
2018-06-28T00:31:16.099Z,97.40
2018-06-28T00:33:44.646Z,97.40
2018-06-28T00:36:13.222Z,97.10
2018-06-28T00:38:41.826Z,97.10
2018-06-28T00:41:10.371Z,97.30
2018-06-28T00:43:39.153Z,97.40
2018-06-28T00:46:07.727Z,97.20
2018-06-28T00:48:36.293Z,98.00
2018-06-28T00:51:04.920Z,98.20
2018-06-28T00:53:33.777Z,98.50
2018-06-28T00:56:02.386Z,98.50
2018-06-28T00:58:31.161Z,98.60
2018-06-28T01:00:59.744Z,99.00
2018-06-28T01:03:28.417Z,99.10
2018-06-28T01:05:57.045Z,98.80
2018-06-28T01:08:25.694Z,98.90
2018-06-28T01:10:54.994Z,98.80
2018-06-28T01:13:24.269Z,98.80
2018-06-28T01:15:52.864Z,98.80
2018-06-28T01:18:22.523Z,98.30
2018-06-28T01:20:51.498Z,98.80
2018-06-28T01:23:20.254Z,98.80
2018-06-28T01:25:48.732Z,98.50
2018-06-28T01:28:17.397Z,98.00
2018-06-28T01:30:46.593Z,98.60
2018-06-28T01:33:15.181Z,99.40
2018-06-28T01:35:43.810Z,99.10
2018-06-28T01:38:12.322Z,99.10
2018-06-28T01:40:40.805Z,99.00
2018-06-28T01:43:47.062Z,99.00
2018-06-28T01:46:16.498Z,99.10
2018-06-28T01:48:45.307Z,99.10
2018-06-28T01:51:14.594Z,98.90
2018-06-28T01:53:43.108Z,99.20
2018-06-28T01:56:11.981Z,99.80
2018-06-28T01:58:40.545Z,99.90
2018-06-28T02:01:09.076Z,99.90
2018-06-28T02:03:44.109Z,99.90
2018-06-28T02:06:12.733Z,99.90
2018-06-28T02:08:41.234Z,99.80
2018-06-28T02:11:10.273Z,99.90
2018-06-28T02:13:38.739Z,99.90
2018-06-28T02:16:07.374Z,99.90
2018-06-28T02:18:36.570Z,99.90
2018-06-28T02:21:05.122Z,99.90
2018-06-28T02:23:33.662Z,99.90
2018-06-28T02:26:02.123Z,99.90
2018-06-28T02:28:30.744Z,99.90
2018-06-28T02:30:59.978Z,99.90
2018-06-28T02:33:28.526Z,99.90
2018-06-28T02:35:57.152Z,99.90
2018-06-28T02:38:26.906Z,99.90
2018-06-28T02:40:56.140Z,99.90
2018-06-28T02:43:24.625Z,99.90
2018-06-28T02:45:59.617Z,99.90
2018-06-28T02:48:28.133Z,99.90
2018-06-28T02:50:56.722Z,99.90
2018-06-28T02:53:25.974Z,99.90
2018-06-28T02:55:54.598Z,99.90
2018-06-28T02:58:23.681Z,99.90
2018-06-28T03:00:52.198Z,99.90
2018-06-28T03:03:20.820Z,99.90
2018-06-28T03:05:49.303Z,99.90
2018-06-28T03:08:17.833Z,99.90
2018-06-28T03:10:46.345Z,99.90
2018-06-28T03:13:14.835Z,99.90
2018-06-28T03:15:43.350Z,99.90
2018-06-28T03:18:11.925Z,99.90
2018-06-28T03:20:40.566Z,99.90
2018-06-28T03:23:09.904Z,99.90
2018-06-28T03:25:38.385Z,99.90
2018-06-28T03:28:06.880Z,99.90
2018-06-28T03:30:36.706Z,99.90
2018-06-28T03:33:05.909Z,99.90
2018-06-28T03:35:35.154Z,99.90
2018-06-28T03:38:03.801Z,99.90
2018-06-28T03:40:32.458Z,99.90
2018-06-28T03:43:00.970Z,99.90
2018-06-28T03:45:29.631Z,99.90
2018-06-28T03:47:58.209Z,99.90
2018-06-28T03:50:26.679Z,99.90
2018-06-28T03:52:55.310Z,99.90
2018-06-28T03:55:23.920Z,99.90
2018-06-28T03:57:52.463Z,99.90
2018-06-28T04:00:20.978Z,99.90
2018-06-28T04:02:49.740Z,99.90
2018-06-28T04:05:18.797Z,99.90
2018-06-28T04:07:47.279Z,99.90
2018-06-28T04:10:15.976Z,99.90
2018-06-28T04:12:44.508Z,99.90
2018-06-28T04:15:13.874Z,99.90
2018-06-28T04:17:42.458Z,99.90
2018-06-28T04:20:10.987Z,99.90
2018-06-28T04:22:39.453Z,99.90
2018-06-28T04:25:08.735Z,99.90
2018-06-28T04:27:37.204Z,99.90
2018-06-28T04:30:06.489Z,99.90
2018-06-28T04:32:35.084Z,99.90
2018-06-28T04:35:03.730Z,99.90
2018-06-28T04:37:33.135Z,99.90
2018-06-28T04:40:01.827Z,99.90
2018-06-28T04:42:30.431Z,99.90
2018-06-28T04:44:58.990Z,99.90
2018-06-28T04:47:27.491Z,99.90
2018-06-28T04:49:56.128Z,99.90
2018-06-28T04:52:24.691Z,99.90
2018-06-28T04:54:53.272Z,99.90
2018-06-28T04:57:21.740Z,99.90
2018-06-28T04:59:50.297Z,99.90
2018-06-28T05:02:18.809Z,99.90
2018-06-28T05:04:47.398Z,99.90
2018-06-28T05:07:15.971Z,99.90
2018-06-28T05:09:45.009Z,99.90
2018-06-28T05:12:13.551Z,99.90
2018-06-28T05:14:42.267Z,99.90
2018-06-28T05:17:10.797Z,99.90
2018-06-28T05:19:39.348Z,99.90
2018-06-28T05:22:08.026Z,99.90
2018-06-28T05:24:36.777Z,99.90
2018-06-28T05:27:05.681Z,99.90
2018-06-28T05:29:34.231Z,99.30
2018-06-28T05:32:02.832Z,99.90
2018-06-28T05:34:31.401Z,99.90
2018-06-28T05:37:00.210Z,99.60
2018-06-28T05:39:28.756Z,99.70
2018-06-28T05:41:58.004Z,99.40
2018-06-28T05:44:26.545Z,99.90
2018-06-28T05:49:23.563Z,99.80
2018-06-28T05:51:52.129Z,99.50
2018-06-28T05:54:20.642Z,99.90
2018-06-28T05:56:49.314Z,99.80
2018-06-28T05:59:18.651Z,99.40
2018-06-28T06:01:47.200Z,99.50
2018-06-28T06:04:15.817Z,99.10
2018-06-28T06:06:44.376Z,98.90
2018-06-28T06:09:13.078Z,99.20
2018-06-28T06:11:41.767Z,99.80
2018-06-28T06:14:10.406Z,98.80
2018-06-28T06:16:38.914Z,98.40
2018-06-28T06:19:07.550Z,98.50
2018-06-28T06:21:36.157Z,98.90
2018-06-28T06:24:04.718Z,98.40
2018-06-28T06:26:33.186Z,98.70
2018-06-28T06:29:02.503Z,98.70
2018-06-28T06:31:31.550Z,98.20
2018-06-28T06:34:00.927Z,98.40
2018-06-28T06:36:29.414Z,98.10
2018-06-28T06:38:58.100Z,98.30
2018-06-28T06:41:26.630Z,98.10
2018-06-28T06:43:55.222Z,98.30
2018-06-28T06:46:23.739Z,98.10
2018-06-28T06:48:52.395Z,98.00
2018-06-28T06:51:24.623Z,97.30
2018-06-28T06:53:53.723Z,97.40
2018-06-28T06:56:22.330Z,97.10
2018-06-28T06:58:50.818Z,97.50
2018-06-28T07:01:19.389Z,97.30
2018-06-28T07:03:48.004Z,97.10
2018-06-28T07:06:16.956Z,97.00
2018-06-28T07:08:45.796Z,97.50
2018-06-28T07:11:15.268Z,96.80
2018-06-28T07:13:44.328Z,96.70
2018-06-28T07:16:12.874Z,96.40
2018-06-28T07:18:41.430Z,96.30
2018-06-28T07:21:10.295Z,96.40
2018-06-28T07:23:38.975Z,96.30
2018-06-28T07:26:07.747Z,96.20
2018-06-28T07:28:36.634Z,95.80
2018-06-28T07:31:05.155Z,95.60
2018-06-28T07:33:34.439Z,95.30
2018-06-28T07:36:03.260Z,95.50
2018-06-28T07:38:31.867Z,94.60
2018-06-28T07:41:00.405Z,94.10
2018-06-28T07:43:28.966Z,94.70
2018-06-28T07:45:57.488Z,94.40
2018-06-28T07:48:26.032Z,94.30
2018-06-28T07:50:55.062Z,94.10
2018-06-28T07:53:23.566Z,93.30
2018-06-28T07:55:52.151Z,92.80
2018-06-28T07:58:21.782Z,92.60
2018-06-28T08:00:50.313Z,92.10
2018-06-28T08:03:18.810Z,92.20
2018-06-28T08:05:47.415Z,91.40
2018-06-28T08:08:16.734Z,91.50
2018-06-28T08:10:45.288Z,91.80
2018-06-28T08:13:13.760Z,91.20
2018-06-28T08:15:42.811Z,90.00
2018-06-28T08:18:11.296Z,90.20
2018-06-28T08:20:39.904Z,88.50
2018-06-28T08:23:09.129Z,88.10
2018-06-28T08:25:37.655Z,90.10
2018-06-28T08:28:06.304Z,90.40
2018-06-28T08:30:34.831Z,89.10
2018-06-28T08:33:03.366Z,87.30
2018-06-28T08:35:31.966Z,85.90
2018-06-28T08:38:00.478Z,87.10
2018-06-28T08:40:29.125Z,87.10
2018-06-28T08:42:57.646Z,88.70
2018-06-28T08:45:26.163Z,90.20
2018-06-28T08:47:54.761Z,89.10
2018-06-28T08:50:23.276Z,88.90
2018-06-28T08:52:51.907Z,89.90
2018-06-28T08:55:20.453Z,90.00
2018-06-28T08:57:49.057Z,90.30
2018-06-28T09:00:17.623Z,89.90
2018-06-28T09:02:46.165Z,90.80
2018-06-28T09:05:15.286Z,91.10
2018-06-28T09:07:43.841Z,91.10
2018-06-28T09:10:12.490Z,90.90
2018-06-28T09:12:41.091Z,90.80
2018-06-28T09:15:10.145Z,90.90
2018-06-28T09:17:38.611Z,90.40
2018-06-28T09:20:07.450Z,89.30
2018-06-28T09:22:36.113Z,91.00
2018-06-28T09:25:04.699Z,90.40
2018-06-28T09:27:33.333Z,89.00
2018-06-28T09:30:01.851Z,89.20
2018-06-28T09:32:30.426Z,88.70
2018-06-28T09:34:59.006Z,88.40
2018-06-28T09:37:27.623Z,87.50
2018-06-28T09:39:56.334Z,83.70
2018-06-28T09:42:24.971Z,85.10
2018-06-28T09:44:53.521Z,84.50
2018-06-28T09:47:22.096Z,83.60
2018-06-28T09:49:50.619Z,84.50
2018-06-28T09:52:19.115Z,84.50
2018-06-28T09:54:47.695Z,83.70
2018-06-28T09:57:16.223Z,83.50
2018-06-28T09:59:44.793Z,86.00
2018-06-28T10:02:13.427Z,83.50
2018-06-28T10:04:42.685Z,81.90
2018-06-28T10:07:11.411Z,78.10
2018-06-28T10:09:39.934Z,81.60
2018-06-28T10:12:08.491Z,83.10
2018-06-28T10:14:37.828Z,82.00
2018-06-28T10:17:06.465Z,80.20
2018-06-28T10:19:35.204Z,80.50
2018-06-28T10:22:04.497Z,78.40
2018-06-28T10:24:33.143Z,78.40
2018-06-28T10:27:01.752Z,75.60
2018-06-28T10:29:30.226Z,76.40
2018-06-28T10:31:58.715Z,75.50
2018-06-28T10:34:27.277Z,76.30
2018-06-28T10:36:55.782Z,77.00
2018-06-28T10:39:24.298Z,76.90
2018-06-28T10:41:54.411Z,78.80
2018-06-28T10:44:22.886Z,79.00
2018-06-28T10:46:51.783Z,79.00
2018-06-28T10:49:20.378Z,79.80
2018-06-28T10:51:48.944Z,81.70
2018-06-28T10:54:17.499Z,80.90
2018-06-28T10:56:46.041Z,82.50
2018-06-28T10:59:14.663Z,83.80
2018-06-28T11:01:43.337Z,84.00
2018-06-28T11:04:12.424Z,85.40
2018-06-28T11:06:41.041Z,86.60
2018-06-28T11:09:10.577Z,86.50
2018-06-28T11:11:40.077Z,88.50
2018-06-28T11:14:09.023Z,89.60
2018-06-28T11:16:37.616Z,89.60
2018-06-28T11:19:06.183Z,89.20
2018-06-28T11:21:34.799Z,90.40
2018-06-28T11:24:03.361Z,90.50
2018-06-28T11:26:31.911Z,90.70
2018-06-28T11:29:00.707Z,90.20
2018-06-28T11:31:29.224Z,90.50
2018-06-28T11:33:57.864Z,90.60
2018-06-28T11:36:26.444Z,90.40
2018-06-28T11:38:55.046Z,90.30
2018-06-28T11:41:23.586Z,90.40
2018-06-28T11:43:52.157Z,90.50
2018-06-28T11:46:21.230Z,90.40
2018-06-28T11:48:49.966Z,90.30
2018-06-28T11:51:19.392Z,90.60
2018-06-28T11:53:48.010Z,90.60
2018-06-28T11:56:16.627Z,90.50
2018-06-28T11:58:45.604Z,90.60
2018-06-28T12:01:14.154Z,90.30
2018-06-28T12:03:48.171Z,90.30
2018-06-28T12:06:16.807Z,90.50
2018-06-28T12:08:45.486Z,90.40
2018-06-28T12:11:14.739Z,91.00
2018-06-28T12:13:43.441Z,90.60
2018-06-28T12:16:12.018Z,90.70
2018-06-28T12:18:41.292Z,90.50
2018-06-28T12:21:10.578Z,90.40
2018-06-28T12:23:40.065Z,90.40
2018-06-28T12:26:09.026Z,90.80
2018-06-28T12:28:37.623Z,90.70
2018-06-28T12:31:06.213Z,90.30
2018-06-28T12:33:34.677Z,90.40
2018-06-28T12:36:03.452Z,91.20
2018-06-28T12:38:33.344Z,90.60
2018-06-28T12:41:01.917Z,91.10
2018-06-28T12:43:31.011Z,90.60
2018-06-28T12:46:00.571Z,90.80
2018-06-28T12:48:29.114Z,91.20
2018-06-28T12:50:57.709Z,90.90
2018-06-28T12:53:26.424Z,90.80
2018-06-28T12:56:30.826Z,91.30
2018-06-28T12:59:01.697Z,90.90
2018-06-28T13:01:30.564Z,91.00
2018-06-28T13:03:59.492Z,91.10
2018-06-28T13:06:28.718Z,92.20
2018-06-28T13:08:57.937Z,92.50
2018-06-28T13:11:26.978Z,92.30
2018-06-28T13:13:55.806Z,92.70
2018-06-28T13:16:26.705Z,92.80
2018-06-28T13:18:56.049Z,92.40
2018-06-28T13:21:25.211Z,92.50
2018-06-28T13:23:54.478Z,92.80
2018-06-28T13:26:23.337Z,93.00
2018-06-28T13:28:52.008Z,92.80
2018-06-28T13:31:20.577Z,92.80
2018-06-28T13:33:49.350Z,93.30
2018-06-28T13:36:18.459Z,93.90
2018-06-28T13:38:47.661Z,93.50
2018-06-28T13:41:16.930Z,93.70
2018-06-28T13:43:45.150Z,93.70
2018-06-28T13:46:13.832Z,93.90
2018-06-28T13:48:42.441Z,93.70
2018-06-28T13:51:11.137Z,93.70
2018-06-28T13:53:39.719Z,93.60
2018-06-28T13:56:08.989Z,93.60
2018-06-28T13:58:37.573Z,94.00
2018-06-28T14:01:06.943Z,94.40
2018-06-28T14:03:37.229Z,93.90
2018-06-28T14:06:06.116Z,93.70
2018-06-28T14:08:34.724Z,93.50
2018-06-28T14:11:03.342Z,93.60
2018-06-28T14:13:32.591Z,93.10
2018-06-28T14:16:01.977Z,93.20
2018-06-28T14:18:31.296Z,93.50
2018-06-28T14:20:59.938Z,93.30
2018-06-28T14:23:28.654Z,93.30
2018-06-28T14:25:57.272Z,93.40
2018-06-28T14:28:25.791Z,93.10
2018-06-28T14:30:54.392Z,93.10
2018-06-28T14:33:23.060Z,93.40
2018-06-28T14:35:51.734Z,93.30
2018-06-28T14:38:20.275Z,93.10
2018-06-28T14:40:49.407Z,93.70
2018-06-28T14:43:18.837Z,93.80
2018-06-28T14:45:48.284Z,93.80
2018-06-28T14:48:17.561Z,93.80
2018-06-28T14:50:46.233Z,93.90
2018-06-28T14:53:15.660Z,93.70
2018-06-28T14:55:44.828Z,93.90
2018-06-28T14:58:15.108Z,94.20
2018-06-28T15:00:43.843Z,94.50
2018-06-28T15:03:12.448Z,94.70
2018-06-28T15:05:41.724Z,94.90
2018-06-28T15:08:16.749Z,95.00
2018-06-28T15:10:45.902Z,95.00
2018-06-28T15:13:14.458Z,94.90
2018-06-28T15:15:43.274Z,95.30
2018-06-28T15:18:12.046Z,96.00
2018-06-28T15:20:40.793Z,96.50
2018-06-28T15:23:09.835Z,97.10
2018-06-28T15:25:38.364Z,97.40
2018-06-28T15:28:07.173Z,97.70
2018-06-28T15:30:35.880Z,98.30
2018-06-28T15:33:04.969Z,98.20
2018-06-28T15:35:33.540Z,98.50
2018-06-28T15:38:02.195Z,99.20
2018-06-28T15:40:31.043Z,99.20
2018-06-28T15:42:59.608Z,99.60
2018-06-28T15:45:28.234Z,99.50
2018-06-28T15:47:56.776Z,99.90
2018-06-28T15:50:25.621Z,99.90
2018-06-28T15:52:54.386Z,99.90
2018-06-28T15:55:23.046Z,99.90
2018-06-28T15:57:51.712Z,99.90
2018-06-28T16:00:20.448Z,99.90
2018-06-28T16:02:49.167Z,99.90
2018-06-28T16:05:18.166Z,99.90
2018-06-28T16:07:46.753Z,99.90
2018-06-28T16:10:15.358Z,99.90
2018-06-28T16:12:43.950Z,99.90
2018-06-28T16:15:12.499Z,99.90
2018-06-28T16:17:41.191Z,99.90
2018-06-28T16:20:10.629Z,99.90
2018-06-28T16:22:39.688Z,99.90
2018-06-28T16:25:08.205Z,99.90
2018-06-28T16:27:36.751Z,99.90
2018-06-28T16:30:05.499Z,99.90
2018-06-28T16:32:34.797Z,99.90
2018-06-28T16:35:03.422Z,99.90
2018-06-28T16:37:32.074Z,99.90
2018-06-28T16:40:01.221Z,99.90
2018-06-28T16:42:29.820Z,99.90
2018-06-28T16:44:58.320Z,99.90
2018-06-28T16:47:26.925Z,99.90
2018-06-28T16:49:55.737Z,99.90
2018-06-28T16:52:24.407Z,99.90
2018-06-28T16:54:52.990Z,99.90
2018-06-28T16:57:21.653Z,99.90
2018-06-28T16:59:50.279Z,99.90
2018-06-28T17:02:18.861Z,99.40
2018-06-28T17:04:47.627Z,99.20
2018-06-28T17:07:16.286Z,99.30
2018-06-28T17:09:44.989Z,99.40
2018-06-28T17:12:13.599Z,98.90
2018-06-28T17:14:42.164Z,99.30
2018-06-28T17:17:10.819Z,99.40
2018-06-28T17:19:39.339Z,99.70
2018-06-28T17:22:08.030Z,99.80
2018-06-28T17:24:36.651Z,99.70
2018-06-28T17:27:05.303Z,99.90
2018-06-28T17:29:35.004Z,99.90
2018-06-28T17:32:03.762Z,99.90
2018-06-28T17:34:32.343Z,99.90
2018-06-28T17:37:01.509Z,99.90
2018-06-28T17:39:30.153Z,99.90
2018-06-28T17:41:58.789Z,99.90
2018-06-28T17:44:27.421Z,99.90
2018-06-28T17:46:55.999Z,99.90
2018-06-28T17:49:24.705Z,99.90
2018-06-28T17:51:53.475Z,99.90
2018-06-28T17:54:22.212Z,99.90
2018-06-28T17:56:50.775Z,99.90
2018-06-28T17:59:20.077Z,99.90
2018-06-28T18:01:48.852Z,99.90
2018-06-28T18:04:17.422Z,99.90
2018-06-28T18:06:46.526Z,99.90
2018-06-28T18:09:15.344Z,99.90
2018-06-28T18:11:45.037Z,99.90
2018-06-28T18:14:13.781Z,99.90
2018-06-28T18:16:43.181Z,99.90
2018-06-28T18:19:11.841Z,99.90
2018-06-28T18:21:40.382Z,99.90
2018-06-28T18:24:09.074Z,99.90
2018-06-28T18:26:37.662Z,99.90
2018-06-28T18:29:06.247Z,99.90
2018-06-28T18:31:34.781Z,99.90
2018-06-28T18:34:04.109Z,99.90
2018-06-28T18:36:33.404Z,99.90
2018-06-28T18:39:02.645Z,99.90
2018-06-28T18:41:31.171Z,99.90
2018-06-28T18:43:59.948Z,99.90
2018-06-28T18:46:29.102Z,99.90
2018-06-28T18:48:57.679Z,99.90
2018-06-28T18:51:26.295Z,99.90
2018-06-28T18:53:54.924Z,99.90
2018-06-28T18:56:23.805Z,99.90
2018-06-28T18:58:52.382Z,99.90
2018-06-28T19:01:20.970Z,99.90
2018-06-28T19:03:50.342Z,99.90
2018-06-28T19:06:18.993Z,99.90
2018-06-28T19:08:47.585Z,99.90
2018-06-28T19:11:16.213Z,99.90
2018-06-28T19:13:50.211Z,99.90
2018-06-28T19:16:24.117Z,99.90
2018-06-28T19:18:52.856Z,99.90
2018-06-28T19:21:26.798Z,99.90
2018-06-28T19:23:55.355Z,99.90
2018-06-28T19:26:24.116Z,99.90
2018-06-28T19:28:52.634Z,99.90
2018-06-28T19:31:27.078Z,99.90
2018-06-28T19:33:55.760Z,99.90
2018-06-28T19:36:24.427Z,99.90
2018-06-28T19:38:58.502Z,99.90
2018-06-28T19:41:32.453Z,99.90
2018-06-28T19:44:01.038Z,99.90
2018-06-28T19:46:30.319Z,99.90
2018-06-28T19:48:58.821Z,99.90
2018-06-28T19:51:32.656Z,99.90
2018-06-28T19:54:01.185Z,99.90
2018-06-28T19:56:29.760Z,99.90
2018-06-28T19:58:58.336Z,99.90
2018-06-28T20:01:32.151Z,99.90
2018-06-28T20:04:06.232Z,99.90
2018-06-28T20:06:34.798Z,99.90
2018-06-28T20:09:03.419Z,99.90
2018-06-28T20:11:31.971Z,99.90
2018-06-28T20:14:05.770Z,99.90
2018-06-28T20:16:39.554Z,99.90
2018-06-28T20:19:13.490Z,99.90
2018-06-28T20:21:42.176Z,99.90
2018-06-28T20:24:10.754Z,99.90
2018-06-28T20:26:44.498Z,99.90
2018-06-28T20:29:18.364Z,99.90
2018-06-28T20:31:52.193Z,99.90
2018-06-28T20:34:20.784Z,99.90
2018-06-28T20:36:49.470Z,99.90
2018-06-28T20:39:17.971Z,99.90
2018-06-28T20:41:46.503Z,99.90
2018-06-28T20:44:15.115Z,99.90
2018-06-28T20:46:44.283Z,99.90
2018-06-28T20:49:12.916Z,99.90
2018-06-28T20:51:41.460Z,99.90
2018-06-28T20:54:10.671Z,99.90
2018-06-28T20:56:39.328Z,99.90
2018-06-28T20:59:07.927Z,99.90
2018-06-28T21:01:36.630Z,99.90
2018-06-28T21:04:06.148Z,99.90
2018-06-28T21:06:35.409Z,99.90
2018-06-28T21:09:06.141Z,99.90
2018-06-28T21:11:35.303Z,99.90
2018-06-28T21:14:03.937Z,99.90
2018-06-28T21:16:33.255Z,99.90
2018-06-28T21:19:01.735Z,99.90
2018-06-28T21:21:30.506Z,99.90
2018-06-28T21:23:59.332Z,99.90
2018-06-28T21:26:27.917Z,99.90
2018-06-28T21:28:56.923Z,99.90
2018-06-28T21:31:25.457Z,99.90
2018-06-28T21:33:54.179Z,99.90
2018-06-28T21:36:22.715Z,99.90
2018-06-28T21:38:51.245Z,99.90
2018-06-28T21:41:20.741Z,99.90
2018-06-28T21:43:49.358Z,99.90
2018-06-28T21:46:17.917Z,99.90
2018-06-28T21:48:46.571Z,99.90
2018-06-28T21:51:15.081Z,99.90
2018-06-28T21:53:43.629Z,99.90
2018-06-28T21:56:12.162Z,99.90
2018-06-28T21:58:40.762Z,99.90
2018-06-28T22:01:09.378Z,99.90
2018-06-28T22:03:38.876Z,99.90
2018-06-28T22:06:07.448Z,99.90
2018-06-28T22:08:35.953Z,99.90
2018-06-28T22:11:04.700Z,99.90
2018-06-28T22:13:33.165Z,99.90
2018-06-28T22:16:01.692Z,99.90
2018-06-28T22:18:30.260Z,99.90
2018-06-28T22:20:59.486Z,99.90
2018-06-28T22:23:28.017Z,99.90
2018-06-28T22:25:56.751Z,99.90
2018-06-28T22:28:25.296Z,99.90
2018-06-28T22:30:54.825Z,99.90
2018-06-28T22:33:23.371Z,99.90
2018-06-28T22:35:51.917Z,99.90
2018-06-28T22:38:20.540Z,99.90
2018-06-28T22:40:49.115Z,99.90
2018-06-28T22:43:17.749Z,99.90
2018-06-28T22:45:47.191Z,99.90
2018-06-28T22:48:15.796Z,99.90
2018-06-28T22:50:44.345Z,99.90
2018-06-28T22:53:12.853Z,99.90
2018-06-28T22:55:41.452Z,99.90
2018-06-28T22:58:09.983Z,99.90
2018-06-28T23:00:38.461Z,99.90
2018-06-28T23:03:07.011Z,99.90
2018-06-28T23:05:35.575Z,99.90
2018-06-28T23:08:04.077Z,99.90
2018-06-28T23:10:32.614Z,99.90
2018-06-28T23:13:01.125Z,99.90
2018-06-28T23:15:30.412Z,99.90
2018-06-28T23:17:59.087Z,99.90
2018-06-28T23:20:27.749Z,99.90
2018-06-28T23:22:56.315Z,99.90
2018-06-28T23:25:25.368Z,99.90
2018-06-28T23:27:53.872Z,99.90
2018-06-28T23:30:23.388Z,99.90
2018-06-28T23:32:52.038Z,99.90
2018-06-28T23:35:20.632Z,99.90
2018-06-28T23:37:49.153Z,99.90
2018-06-28T23:40:17.779Z,99.90
2018-06-28T23:42:46.247Z,99.90
2018-06-28T23:45:14.801Z,99.90
2018-06-28T23:47:43.522Z,99.90
2018-06-28T23:50:12.009Z,99.90
2018-06-28T23:52:41.157Z,99.90
2018-06-28T23:55:10.378Z,99.90
2018-06-28T23:57:38.919Z,99.90
